Terminal Aerodrome Forecast
Issued by NWS

Home | Current Version | Previous Version | Text Only | Print | Product List | Glossary On
Versions: 1 2 3 4 5 6 7 8 9 10 11 12 13
000
FTUS45 KABQ 221200 AAA
TAFLVS
TAF AMD
KLVS 221254Z 2213/2312 30023G35KT P6SM FEW080 SCT200
     FM221900 29020G31KT P6SM FEW040 SCT150
     FM230230 03011KT P6SM VCSH OVC020
     FM230600 04010KT 1 1/2SM -SN BR OVC009=

USA.gov is the U.S. government's official web portal to all federal, state and local government web resources and services.